Time;durP1;ratioP1;P1;durP2;ratioP2;P2;SDS_P1;SDS_P2;PMS_P1;PMS_P2;Temp;Humidity;BMP_temperature;BMP_pressure;BME280_temperature;BME280_humidity;BME280_pressure;Samples;Min_cycle;Max_cycle;Signal;HPM_P1;HPM_P2
2024/01/11 00:01:19;;;;;;;31.55;20.77;;;-1.30;99.90;;;;;;5055477;28;20280;-77
2024/01/11 00:03:47;;;;;;;38.05;23.58;;;-1.20;99.90;;;;;;5050427;28;20761;-77
2024/01/11 00:06:15;;;;;;;33.10;21.27;;;-1.30;99.90;;;;;;5043283;28;20194;-78
2024/01/11 00:08:44;;;;;;;34.70;24.17;;;-1.30;99.90;;;;;;5046534;28;20204;-78
2024/01/11 00:11:12;;;;;;;39.08;24.70;;;-1.30;99.90;;;;;;5046300;28;20542;-78
2024/01/11 00:13:45;;;;;;;35.92;23.58;;;-1.40;99.90;;;;;;5039946;28;20216;-77
2024/01/11 00:16:13;;;;;;;35.03;23.33;;;-1.30;99.90;;;;;;5034616;28;20203;-80
2024/01/11 00:18:44;;;;;;;41.72;23.90;;;-1.30;99.90;;;;;;5040288;28;20202;-78
2024/01/11 00:21:13;;;;;;;35.40;23.15;;;-1.30;99.90;;;;;;5042863;28;20201;-77
2024/01/11 00:23:41;;;;;;;33.97;23.48;;;-1.30;99.90;;;;;;5049472;28;20283;-76
2024/01/11 00:26:12;;;;;;;34.38;23.27;;;-1.30;99.90;;;;;;5047688;28;20680;-78
2024/01/11 00:28:41;;;;;;;34.85;22.63;;;-1.30;99.90;;;;;;5038427;28;20214;-76
2024/01/11 00:31:09;;;;;;;33.25;22.23;;;-1.30;99.90;;;;;;5039695;28;20200;-76
2024/01/11 00:33:37;;;;;;;34.85;20.85;;;-1.40;99.90;;;;;;5049870;28;20225;-77
2024/01/11 00:36:07;;;;;;;37.80;23.63;;;-1.40;99.90;;;;;;5050888;28;20197;-78
2024/01/11 00:38:36;;;;;;;39.83;23.10;;;-1.50;99.90;;;;;;5050452;28;20266;-78
2024/01/11 00:41:04;;;;;;;35.85;24.65;;;-1.40;99.90;;;;;;5045216;28;20775;-78
2024/01/11 00:43:33;;;;;;;40.15;23.63;;;-1.40;99.90;;;;;;5049650;28;20228;-76
2024/01/11 00:46:01;;;;;;;35.47;23.73;;;-1.40;99.90;;;;;;5039702;28;20201;-76
2024/01/11 00:48:29;;;;;;;36.10;23.48;;;-1.50;99.90;;;;;;5041276;28;20624;-78
2024/01/11 00:50:58;;;;;;;35.55;22.15;;;-1.50;99.90;;;;;;5037040;28;20201;-80
2024/01/11 00:53:30;;;;;;;29.27;19.13;;;-1.50;99.90;;;;;;5044862;28;20224;-77
2024/01/11 00:55:59;;;;;;;35.40;21.80;;;-1.50;99.90;;;;;;5045614;28;20205;-77
2024/01/11 00:58:27;;;;;;;33.08;22.15;;;-1.60;99.90;;;;;;5041696;28;20268;-78
2024/01/11 01:00:55;;;;;;;27.33;19.02;;;-1.60;99.90;;;;;;5038753;28;20205;-78
2024/01/11 01:03:24;;;;;;;30.17;19.60;;;-1.60;99.90;;;;;;5035879;28;20224;-78
2024/01/11 01:05:52;;;;;;;32.90;22.05;;;-1.60;99.90;;;;;;5051745;28;20197;-79
2024/01/11 01:08:20;;;;;;;32.85;22.40;;;-1.60;99.90;;;;;;5049281;28;20316;-79
2024/01/11 01:10:50;;;;;;;33.58;22.33;;;-1.70;99.90;;;;;;5037164;28;20198;-78
2024/01/11 01:13:18;;;;;;;28.92;20.52;;;-1.70;99.90;;;;;;5044991;28;20293;-77
2024/01/11 01:15:47;;;;;;;35.35;21.20;;;-1.60;99.90;;;;;;5046358;28;20194;-80
2024/01/11 01:18:15;;;;;;;33.80;21.75;;;-1.70;99.90;;;;;;5050585;28;20562;-79
2024/01/11 01:21:02;;;;;;;31.23;21.08;;;-1.70;99.90;;;;;;5027044;28;20217;-80
2024/01/11 01:23:30;;;;;;;34.28;21.95;;;-1.70;99.90;;;;;;5047001;28;20221;-78
2024/01/11 01:26:00;;;;;;;32.10;20.80;;;-1.60;99.90;;;;;;5049890;28;20299;-78
2024/01/11 01:28:32;;;;;;;37.10;23.00;;;-1.70;99.90;;;;;;5037715;28;20423;-80
2024/01/11 01:31:18;;;;;;;32.53;20.55;;;-1.70;99.90;;;;;;5045158;28;20198;-78
2024/01/11 01:33:46;;;;;;;37.08;21.73;;;-1.70;99.90;;;;;;5041266;28;20741;-79
2024/01/11 01:36:14;;;;;;;31.70;20.65;;;-1.80;99.90;;;;;;5043524;28;20212;-76
2024/01/11 01:38:43;;;;;;;33.97;22.60;;;-1.80;99.90;;;;;;5051218;28;20205;-79
2024/01/11 01:41:12;;;;;;;27.67;19.58;;;-1.80;99.90;;;;;;5041651;28;20562;-80
2024/01/11 01:43:41;;;;;;;27.77;20.67;;;-1.80;99.90;;;;;;5052796;28;20240;-78
2024/01/11 01:46:09;;;;;;;33.13;20.73;;;-1.70;99.90;;;;;;5049082;28;20197;-76
2024/01/11 01:48:38;;;;;;;29.42;21.45;;;-1.80;99.90;;;;;;5043772;28;20236;-79
2024/01/11 01:51:07;;;;;;;31.25;21.35;;;-1.70;99.90;;;;;;5045280;28;20240;-80
2024/01/11 01:53:36;;;;;;;38.78;24.88;;;-1.80;99.90;;;;;;5035592;28;20804;-79
2024/01/11 01:56:06;;;;;;;32.55;21.20;;;-1.80;99.90;;;;;;5044161;28;20193;-78
2024/01/11 01:58:37;;;;;;;33.63;21.25;;;-1.70;99.90;;;;;;5049286;28;20205;-81
2024/01/11 02:01:05;;;;;;;30.67;20.65;;;-1.70;99.90;;;;;;5051189;28;20695;-78
2024/01/11 02:03:38;;;;;;;36.58;23.27;;;-1.60;99.90;;;;;;5047219;28;20225;-77
2024/01/11 02:06:07;;;;;;;35.40;23.15;;;-1.70;99.90;;;;;;5051840;28;20197;-80
2024/01/11 02:08:37;;;;;;;42.33;24.58;;;-1.70;99.90;;;;;;5041495;28;20983;-79
2024/01/11 02:11:06;;;;;;;45.15;25.98;;;-1.70;99.90;;;;;;5044285;28;20197;-78
2024/01/11 02:13:36;;;;;;;41.85;23.80;;;-1.60;99.90;;;;;;5047039;28;20392;-81
2024/01/11 02:16:04;;;;;;;31.48;21.13;;;-1.70;99.90;;;;;;5041685;28;20198;-79
2024/01/11 02:18:33;;;;;;;36.83;20.80;;;-1.80;99.90;;;;;;5038810;28;20206;-79
2024/01/11 02:21:04;;;;;;;31.33;19.52;;;-1.80;99.90;;;;;;5044859;28;20201;-80
2024/01/11 02:23:33;;;;;;;29.15;21.00;;;-1.90;99.90;;;;;;5055645;28;20220;-78
2024/01/11 02:26:03;;;;;;;31.05;22.20;;;-1.90;99.90;;;;;;5051444;28;20241;-80
2024/01/11 02:28:31;;;;;;;32.25;20.02;;;-1.90;99.90;;;;;;5055068;28;20229;-78
2024/01/11 02:30:59;;;;;;;39.47;23.52;;;-1.90;99.90;;;;;;5041655;28;20734;-79
2024/01/11 02:33:28;;;;;;;31.05;21.02;;;-1.80;99.90;;;;;;5057254;28;20213;-79
2024/01/11 02:35:56;;;;;;;29.67;19.55;;;-1.90;99.90;;;;;;5057615;28;20559;-79
2024/01/11 02:38:25;;;;;;;32.28;20.70;;;-2.00;99.90;;;;;;5055203;28;20680;-78
2024/01/11 02:40:54;;;;;;;30.90;21.02;;;-2.10;99.90;;;;;;5052567;28;20216;-78
2024/01/11 02:43:24;;;;;;;32.47;20.90;;;-2.10;99.90;;;;;;5051009;28;20310;-78
2024/01/11 02:45:55;;;;;;;38.00;19.13;;;-2.10;99.90;;;;;;5045190;28;20205;-79
2024/01/11 02:48:23;;;;;;;29.60;19.45;;;-2.00;99.90;;;;;;5041948;28;20226;-79
2024/01/11 02:50:52;;;;;;;29.67;20.77;;;-2.00;99.90;;;;;;5041768;28;20205;-78
2024/01/11 02:53:20;;;;;;;31.77;18.30;;;-2.00;99.90;;;;;;5040169;28;20343;-79
2024/01/11 02:55:48;;;;;;;39.67;23.55;;;-2.10;99.90;;;;;;5046997;28;20200;-80
2024/01/11 02:58:16;;;;;;;34.78;22.17;;;-2.10;99.90;;;;;;5049283;28;20297;-80
2024/01/11 03:00:46;;;;;;;34.67;22.17;;;-2.10;99.90;;;;;;5045803;28;20732;-79
2024/01/11 03:03:14;;;;;;;31.27;20.63;;;-2.10;99.90;;;;;;5046810;28;20241;-79
2024/01/11 03:05:43;;;;;;;36.33;23.30;;;-2.10;99.90;;;;;;5045892;28;20304;-80
2024/01/11 03:08:11;;;;;;;40.22;21.10;;;-2.10;99.90;;;;;;5039614;28;20286;-79
2024/01/11 03:10:39;;;;;;;29.77;18.95;;;-2.10;99.90;;;;;;5046044;28;20316;-79
2024/01/11 03:13:08;;;;;;;27.42;20.35;;;-2.10;99.90;;;;;;5046510;28;20217;-78
2024/01/11 03:15:36;;;;;;;32.85;20.25;;;-2.10;99.90;;;;;;5042695;28;20293;-78
2024/01/11 03:18:06;;;;;;;30.92;19.67;;;-2.10;99.90;;;;;;5047114;28;20210;-78
2024/01/11 03:20:35;;;;;;;29.40;19.95;;;-2.10;99.90;;;;;;5050614;28;20209;-78
2024/01/11 03:23:03;;;;;;;31.92;20.70;;;-2.10;99.90;;;;;;5045079;28;20726;-79
2024/01/11 03:25:32;;;;;;;35.30;21.77;;;-2.20;99.90;;;;;;5045634;28;20267;-76
2024/01/11 03:28:00;;;;;;;29.65;20.08;;;-2.20;99.90;;;;;;5039260;28;20207;-77
2024/01/11 03:30:28;;;;;;;30.60;20.38;;;-2.20;99.90;;;;;;5037292;28;20671;-81
2024/01/11 03:32:57;;;;;;;31.75;20.30;;;-2.10;99.90;;;;;;5047054;28;20245;-77
2024/01/11 03:35:27;;;;;;;29.95;19.92;;;-2.20;99.90;;;;;;5044549;28;20204;-76
2024/01/11 03:37:55;;;;;;;29.48;19.02;;;-2.20;99.90;;;;;;5039516;28;20282;-78
2024/01/11 03:40:23;;;;;;;27.90;20.00;;;-2.30;99.90;;;;;;5043445;28;20193;-79
2024/01/11 03:42:51;;;;;;;33.88;21.60;;;-2.30;99.90;;;;;;5041998;28;20222;-79
2024/01/11 03:45:20;;;;;;;30.08;19.30;;;-2.30;99.90;;;;;;5042700;28;20238;-78
2024/01/11 03:47:48;;;;;;;34.05;21.35;;;-2.20;99.90;;;;;;5036871;28;20205;-76
2024/01/11 03:50:17;;;;;;;33.97;20.75;;;-2.30;99.90;;;;;;5041668;28;20317;-79
2024/01/11 03:52:46;;;;;;;33.75;21.13;;;-2.30;99.90;;;;;;5053986;28;20253;-78
2024/01/11 03:55:15;;;;;;;31.88;20.13;;;-2.30;99.90;;;;;;5041698;28;20197;-79
2024/01/11 03:57:44;;;;;;;33.97;20.88;;;-2.30;99.90;;;;;;5054110;28;20254;-80
2024/01/11 04:00:13;;;;;;;35.60;22.13;;;-2.30;99.90;;;;;;5045524;28;20217;-78
2024/01/11 04:02:41;;;;;;;30.13;18.95;;;-2.30;99.90;;;;;;5040300;28;20222;-80
2024/01/11 04:05:10;;;;;;;31.90;20.92;;;-2.40;99.90;;;;;;5045262;28;20193;-79
2024/01/11 04:07:38;;;;;;;29.63;18.40;;;-2.40;99.90;;;;;;5034127;28;20289;-77
2024/01/11 04:10:09;;;;;;;39.00;18.52;;;-2.30;99.90;;;;;;5046677;28;20217;-78
2024/01/11 04:12:38;;;;;;;30.33;22.10;;;-2.30;99.90;;;;;;5047946;28;20229;-79
2024/01/11 04:15:07;;;;;;;30.98;19.40;;;-2.30;99.90;;;;;;5048317;28;20243;-80
2024/01/11 04:17:35;;;;;;;35.10;20.58;;;-2.30;99.90;;;;;;5051328;28;20232;-81
2024/01/11 04:20:05;;;;;;;34.38;19.00;;;-2.40;99.90;;;;;;5057136;28;20225;-79
2024/01/11 04:22:33;;;;;;;26.30;17.15;;;-2.30;99.90;;;;;;5048085;28;20229;-80
2024/01/11 04:25:02;;;;;;;29.30;18.83;;;-2.30;99.90;;;;;;5049569;28;20201;-80
2024/01/11 04:27:31;;;;;;;33.70;19.83;;;-2.40;99.90;;;;;;5052701;28;20365;-80
2024/01/11 04:29:59;;;;;;;29.60;17.90;;;-2.40;99.90;;;;;;5051446;28;20219;-79
2024/01/11 04:32:28;;;;;;;27.48;19.77;;;-2.40;99.90;;;;;;5054361;28;20594;-79
2024/01/11 04:34:56;;;;;;;31.40;18.92;;;-2.40;99.90;;;;;;5052887;28;20205;-80
2024/01/11 04:37:25;;;;;;;30.55;19.20;;;-2.40;99.90;;;;;;5053281;28;20196;-78
2024/01/11 04:39:53;;;;;;;33.75;20.77;;;-2.50;99.90;;;;;;5056277;28;20194;-79
2024/01/11 04:42:21;;;;;;;23.27;17.23;;;-2.40;99.90;;;;;;5059015;28;20193;-81
2024/01/11 04:44:51;;;;;;;34.53;20.13;;;-2.40;99.90;;;;;;5047717;28;20224;-80
2024/01/11 04:47:19;;;;;;;30.30;21.58;;;-2.40;99.90;;;;;;5043092;28;20197;-79
2024/01/11 04:49:48;;;;;;;29.90;19.60;;;-2.50;99.90;;;;;;5041075;28;20228;-80
2024/01/11 04:52:16;;;;;;;29.88;18.40;;;-2.40;99.90;;;;;;5050899;28;20197;-78
2024/01/11 04:54:44;;;;;;;32.28;20.30;;;-2.50;99.90;;;;;;5041770;28;21620;-80
2024/01/11 04:57:12;;;;;;;23.15;17.60;;;-2.50;99.90;;;;;;5046904;28;20205;-80
2024/01/11 04:59:40;;;;;;;29.67;20.02;;;-2.50;99.90;;;;;;5045957;28;20228;-79
2024/01/11 05:02:10;;;;;;;31.92;19.63;;;-2.50;99.90;;;;;;5036293;28;20462;-79
2024/01/11 05:04:39;;;;;;;29.85;20.65;;;-2.50;99.90;;;;;;5048881;28;20196;-78
2024/01/11 05:07:07;;;;;;;32.08;20.85;;;-2.50;99.90;;;;;;5045138;28;20193;-78
2024/01/11 05:09:35;;;;;;;30.00;19.90;;;-2.50;99.90;;;;;;5041318;28;20248;-77
2024/01/11 05:12:04;;;;;;;29.88;18.13;;;-2.50;99.90;;;;;;5045723;28;20276;-79
2024/01/11 05:14:33;;;;;;;27.38;18.48;;;-2.40;99.90;;;;;;5046081;28;20225;-79
2024/01/11 05:17:01;;;;;;;27.55;18.50;;;-2.40;99.90;;;;;;5046539;28;20193;-79
2024/01/11 05:19:31;;;;;;;30.25;19.00;;;-2.50;99.90;;;;;;5046469;28;20201;-79
2024/01/11 05:21:59;;;;;;;28.58;17.58;;;-2.60;99.90;;;;;;5042464;28;20219;-79
2024/01/11 05:24:28;;;;;;;33.70;19.98;;;-2.60;99.90;;;;;;5048901;28;20223;-80
2024/01/11 05:26:56;;;;;;;37.22;21.83;;;-2.60;99.90;;;;;;5039548;28;20205;-78
2024/01/11 05:29:24;;;;;;;33.70;20.50;;;-2.60;99.90;;;;;;5039260;28;20256;-78
2024/01/11 05:31:53;;;;;;;29.25;19.17;;;-2.50;99.90;;;;;;5040569;28;20210;-79
2024/01/11 05:34:22;;;;;;;31.52;18.98;;;-2.50;99.90;;;;;;5044868;28;20244;-77
2024/01/11 05:36:51;;;;;;;31.88;19.02;;;-2.60;99.90;;;;;;5043992;28;20631;-78
2024/01/11 05:39:19;;;;;;;30.00;20.50;;;-2.50;99.90;;;;;;5051741;28;20201;-76
2024/01/11 05:41:48;;;;;;;33.40;19.13;;;-2.50;99.90;;;;;;5050237;28;20197;-79
2024/01/11 05:44:16;;;;;;;28.92;19.40;;;-2.50;99.90;;;;;;5053109;28;20292;-77
2024/01/11 05:46:44;;;;;;;26.52;18.38;;;-2.60;99.90;;;;;;5038881;28;20497;-77
2024/01/11 05:49:12;;;;;;;33.20;19.42;;;-2.60;99.90;;;;;;5043328;28;20700;-79
2024/01/11 05:51:41;;;;;;;28.75;18.98;;;-2.60;99.90;;;;;;5045757;28;20216;-76
2024/01/11 05:54:10;;;;;;;31.98;19.17;;;-2.60;99.90;;;;;;5045981;28;20326;-76
2024/01/11 05:56:39;;;;;;;33.38;19.27;;;-2.50;99.10;;;;;;5049530;28;20212;-77
2024/01/11 05:59:07;;;;;;;28.13;17.75;;;-2.60;98.50;;;;;;5043701;28;20197;-76
2024/01/11 06:01:42;;;;;;;35.58;20.30;;;-2.60;99.60;;;;;;5046178;28;20290;-76
2024/01/11 06:04:10;;;;;;;31.70;18.23;;;-2.60;99.90;;;;;;5041756;28;20218;-76
2024/01/11 06:06:38;;;;;;;29.73;19.33;;;-2.70;99.90;;;;;;5045368;28;20893;-76
2024/01/11 06:09:07;;;;;;;33.15;19.98;;;-2.70;99.90;;;;;;5043095;28;20209;-78
2024/01/11 06:11:37;;;;;;;32.63;19.17;;;-2.60;99.90;;;;;;5042391;28;20229;-77
2024/01/11 06:14:05;;;;;;;24.02;18.58;;;-2.50;99.90;;;;;;5051313;28;20226;-75
2024/01/11 06:16:33;;;;;;;35.22;20.48;;;-2.50;99.90;;;;;;5042171;28;20309;-75
2024/01/11 06:19:02;;;;;;;35.90;25.27;;;-2.60;99.90;;;;;;5037649;28;20443;-76
2024/01/11 06:21:30;;;;;;;35.67;23.48;;;-2.70;99.90;;;;;;5037005;28;20210;-75
2024/01/11 06:23:58;;;;;;;34.47;25.17;;;-2.60;99.90;;;;;;5047214;28;20444;-76
2024/01/11 06:26:26;;;;;;;36.03;22.20;;;-2.70;99.90;;;;;;5052878;28;20254;-76
2024/01/11 06:28:56;;;;;;;29.83;20.17;;;-2.60;99.90;;;;;;5034225;28;20194;-76
2024/01/11 06:31:24;;;;;;;32.70;20.85;;;-2.60;99.90;;;;;;5041716;28;20444;-77
2024/01/11 06:33:52;;;;;;;32.03;20.27;;;-2.60;99.50;;;;;;5045302;28;20260;-76
2024/01/11 06:36:21;;;;;;;34.60;20.40;;;-2.60;99.20;;;;;;5056419;28;20214;-76
2024/01/11 06:38:49;;;;;;;35.95;20.50;;;-2.60;98.50;;;;;;5045559;28;20292;-75
2024/01/11 06:41:17;;;;;;;30.10;20.42;;;-2.60;99.50;;;;;;5054798;28;20203;-75
2024/01/11 06:43:46;;;;;;;37.38;21.55;;;-2.60;99.90;;;;;;5054963;28;20229;-76
2024/01/11 06:46:21;;;;;;;33.90;19.50;;;-2.70;99.90;;;;;;5046060;28;20250;-75
2024/01/11 06:48:49;;;;;;;26.33;18.05;;;-2.50;99.90;;;;;;5043205;28;20228;-76
2024/01/11 06:51:21;;;;;;;35.75;20.00;;;-2.60;99.90;;;;;;5047253;28;20293;-76
2024/01/11 06:53:49;;;;;;;28.65;19.40;;;-2.50;99.50;;;;;;5041157;28;20348;-76
2024/01/11 06:56:19;;;;;;;26.65;17.50;;;-2.60;95.70;;;;;;5050211;28;20194;-75
2024/01/11 06:58:47;;;;;;;30.10;21.27;;;-2.60;94.70;;;;;;5053511;28;20220;-77
2024/01/11 07:01:18;;;;;;;30.88;20.92;;;-2.60;95.30;;;;;;5051681;28;20317;-77
2024/01/11 07:03:46;;;;;;;38.78;22.50;;;-2.70;96.00;;;;;;5047918;28;20230;-76
2024/01/11 07:06:14;;;;;;;33.17;21.35;;;-2.60;98.70;;;;;;5053836;28;20255;-76
2024/01/11 07:08:43;;;;;;;30.15;19.75;;;-2.60;99.90;;;;;;5052003;28;20209;-76
2024/01/11 07:11:11;;;;;;;31.17;19.13;;;-2.60;98.50;;;;;;5054344;28;20387;-78
2024/01/11 07:13:39;;;;;;;38.28;20.35;;;-2.50;98.80;;;;;;5050388;28;20703;-78
2024/01/11 07:16:07;;;;;;;34.45;21.40;;;-2.50;99.30;;;;;;5037988;28;20194;-75
2024/01/11 07:18:37;;;;;;;38.45;22.02;;;-2.50;99.90;;;;;;5045751;28;20206;-76
2024/01/11 07:21:05;;;;;;;34.25;22.92;;;-2.50;99.90;;;;;;5042313;28;20205;-75
2024/01/11 07:23:34;;;;;;;28.70;20.15;;;-2.50;98.30;;;;;;5037795;28;20235;-76
2024/01/11 07:26:02;;;;;;;29.75;19.90;;;-2.60;99.10;;;;;;5039717;28;20638;-77
2024/01/11 07:28:31;;;;;;;34.97;20.67;;;-2.60;99.30;;;;;;5052479;28;20398;-76
2024/01/11 07:30:59;;;;;;;28.77;19.40;;;-2.50;98.50;;;;;;5038813;28;20212;-77
2024/01/11 07:33:27;;;;;;;37.78;21.67;;;-2.60;96.50;;;;;;5040229;28;20225;-78
2024/01/11 07:35:57;;;;;;;36.60;20.20;;;-2.50;97.70;;;;;;5042676;28;20205;-76
2024/01/11 07:38:26;;;;;;;32.33;21.90;;;-2.50;98.40;;;;;;5048988;28;20275;-75
2024/01/11 07:40:55;;;;;;;30.92;20.80;;;-2.50;99.10;;;;;;5040372;28;20201;-76
2024/01/11 07:43:23;;;;;;;27.90;18.55;;;-2.40;99.90;;;;;;5041374;28;20343;-78
2024/01/11 07:45:58;;;;;;;36.63;20.48;;;-2.40;99.90;;;;;;5047388;28;20951;-75
2024/01/11 07:48:28;;;;;;;32.42;20.13;;;-2.40;99.90;;;;;;5036854;28;20198;-76
2024/01/11 07:50:59;;;;;;;33.63;20.92;;;-2.30;99.90;;;;;;5040592;28;21678;-77
2024/01/11 07:53:27;;;;;;;33.75;21.02;;;-2.30;99.90;;;;;;5045704;28;20785;-77
2024/01/11 07:55:55;;;;;;;38.85;21.55;;;-2.30;99.90;;;;;;5047163;28;20679;-76
2024/01/11 07:58:23;;;;;;;37.00;21.88;;;-2.30;99.90;;;;;;5045876;28;20202;-78
2024/01/11 08:00:52;;;;;;;30.70;20.92;;;-2.30;99.90;;;;;;5046929;28;20298;-76
2024/01/11 08:03:20;;;;;;;32.88;21.05;;;-2.30;99.90;;;;;;5049272;28;20268;-78
2024/01/11 08:05:50;;;;;;;34.80;23.33;;;-2.20;99.90;;;;;;5038397;28;20301;-77
2024/01/11 08:08:20;;;;;;;32.08;22.35;;;-2.20;99.90;;;;;;5038876;28;20304;-76
2024/01/11 08:10:49;;;;;;;32.80;22.15;;;-2.10;99.90;;;;;;5038966;28;20225;-79
2024/01/11 08:13:21;;;;;;;27.02;20.15;;;-2.10;99.90;;;;;;5032744;28;20221;-75
2024/01/11 08:15:49;;;;;;;33.90;21.23;;;-2.00;99.90;;;;;;5035197;28;20851;-76
2024/01/11 08:18:19;;;;;;;37.42;22.58;;;-1.90;99.90;;;;;;5038909;28;20733;-77
2024/01/11 08:20:48;;;;;;;33.92;22.00;;;-1.80;99.90;;;;;;5047043;28;20216;-74
2024/01/11 08:23:17;;;;;;;36.75;23.45;;;-1.70;99.90;;;;;;5051308;28;20227;-78
2024/01/11 08:25:47;;;;;;;31.17;20.55;;;-1.60;99.90;;;;;;5045501;28;20248;-77
2024/01/11 08:28:15;;;;;;;34.08;22.02;;;-1.40;99.90;;;;;;5066310;28;20208;-76
2024/01/11 08:30:43;;;;;;;36.75;24.27;;;-1.40;99.40;;;;;;5041636;28;20270;-76
2024/01/11 08:33:12;;;;;;;33.70;23.58;;;-1.30;98.70;;;;;;5039459;28;21074;-78
2024/01/11 08:35:41;;;;;;;35.92;23.40;;;-1.40;98.00;;;;;;5053165;28;20320;-76
2024/01/11 08:38:10;;;;;;;31.27;21.13;;;-1.30;96.40;;;;;;5051962;28;20197;-78
2024/01/11 08:40:39;;;;;;;35.45;22.63;;;-1.20;96.90;;;;;;5055166;28;20399;-76
2024/01/11 08:43:08;;;;;;;38.35;24.70;;;-1.00;98.90;;;;;;5052036;28;20308;-77
2024/01/11 08:45:37;;;;;;;28.38;20.73;;;-0.90;99.90;;;;;;5050675;28;20197;-75
2024/01/11 08:48:05;;;;;;;30.75;21.00;;;-0.80;99.90;;;;;;5045949;28;20235;-77
2024/01/11 08:50:34;;;;;;;37.22;21.58;;;-0.80;99.90;;;;;;5050108;28;20201;-78
2024/01/11 08:53:02;;;;;;;37.35;21.30;;;-0.80;97.50;;;;;;5053757;28;20229;-76
2024/01/11 08:55:31;;;;;;;34.47;21.58;;;-0.70;98.40;;;;;;5054573;28;20205;-77
2024/01/11 08:57:59;;;;;;;39.33;23.33;;;-0.80;97.10;;;;;;5052372;28;20725;-77
2024/01/11 09:00:29;;;;;;;32.17;22.30;;;-0.70;97.60;;;;;;5052358;28;20204;-74
2024/01/11 09:02:58;;;;;;;44.15;23.70;;;-0.70;99.10;;;;;;5052549;28;20221;-77
2024/01/11 09:05:26;;;;;;;40.50;23.67;;;-0.60;99.90;;;;;;5051786;28;20205;-76
2024/01/11 09:07:55;;;;;;;34.88;22.05;;;-0.40;99.90;;;;;;5053194;28;20555;-77
2024/01/11 09:10:23;;;;;;;33.88;21.98;;;-0.30;99.90;;;;;;5047523;28;20200;-76
2024/01/11 09:12:52;;;;;;;32.40;22.55;;;-0.30;99.90;;;;;;5051506;28;20286;-74
2024/01/11 09:15:20;;;;;;;29.33;18.88;;;-0.30;99.90;;;;;;5054442;28;20205;-76
2024/01/11 09:17:50;;;;;;;37.90;21.73;;;-0.30;99.90;;;;;;5053755;28;20244;-78
2024/01/11 09:20:18;;;;;;;44.40;24.25;;;-0.10;99.90;;;;;;5051084;28;20190;-77
2024/01/11 09:22:47;;;;;;;37.55;24.60;;;0.00;99.90;;;;;;5051323;28;20217;-77
2024/01/11 09:25:16;;;;;;;36.55;23.40;;;0.10;99.90;;;;;;5052409;28;20203;-78
2024/01/11 09:27:44;;;;;;;33.92;23.08;;;0.30;99.90;;;;;;5051121;28;20717;-75
2024/01/11 09:30:13;;;;;;;32.20;22.80;;;0.40;99.90;;;;;;5050596;28;20204;-77
2024/01/11 09:32:41;;;;;;;37.80;23.50;;;0.60;99.90;;;;;;5053955;28;20256;-76
2024/01/11 09:35:12;;;;;;;38.30;22.08;;;0.60;99.90;;;;;;5048302;28;20331;-76
2024/01/11 09:37:46;;;;;;;29.48;22.10;;;0.70;99.90;;;;;;5046566;28;20193;-76
2024/01/11 09:40:14;;;;;;;35.70;23.00;;;0.90;99.90;;;;;;5051843;28;20197;-74
2024/01/11 09:42:43;;;;;;;34.17;23.35;;;1.00;99.90;;;;;;5050587;28;20224;-76
2024/01/11 09:45:15;;;;;;;35.03;22.25;;;1.20;99.90;;;;;;5052043;28;20199;-77
2024/01/11 09:47:45;;;;;;;38.67;24.27;;;1.50;99.90;;;;;;5051486;28;20208;-76
2024/01/11 09:50:18;;;;;;;41.80;24.15;;;1.90;99.90;;;;;;5047039;28;20205;-77
2024/01/11 09:52:48;;;;;;;40.75;23.25;;;2.30;99.90;;;;;;5049768;28;20228;-78
2024/01/11 09:55:17;;;;;;;39.72;25.90;;;2.50;99.90;;;;;;5052178;28;20253;-76
2024/01/11 09:57:46;;;;;;;30.85;21.63;;;2.90;99.90;;;;;;5052813;28;20221;-76
2024/01/11 10:00:18;;;;;;;33.50;21.85;;;3.20;99.90;;;;;;5047626;28;20588;-75
2024/01/11 10:02:47;;;;;;;37.58;23.65;;;3.50;99.90;;;;;;5051986;28;20221;-76
2024/01/11 10:05:19;;;;;;;33.22;22.33;;;3.80;99.90;;;;;;5052835;28;20226;-78
2024/01/11 10:07:47;;;;;;;35.38;21.40;;;4.00;99.90;;;;;;5054749;28;20268;-76
2024/01/11 10:10:16;;;;;;;38.72;23.88;;;4.30;99.90;;;;;;5052637;28;20316;-77
2024/01/11 10:12:44;;;;;;;31.88;23.80;;;4.60;97.70;;;;;;5041733;28;20226;-77
2024/01/11 10:15:13;;;;;;;32.20;22.13;;;5.00;94.40;;;;;;5057385;28;20651;-76
2024/01/11 10:17:43;;;;;;;33.47;23.60;;;5.40;94.20;;;;;;5053937;28;20452;-77
2024/01/11 10:20:13;;;;;;;32.90;23.63;;;5.60;86.10;;;;;;5055038;28;20538;-77
2024/01/11 10:22:44;;;;;;;30.80;22.20;;;5.90;83.00;;;;;;5056044;28;20455;-77
2024/01/11 10:25:15;;;;;;;33.80;24.57;;;6.30;76.50;;;;;;5069119;28;20457;-76
2024/01/11 10:27:45;;;;;;;38.03;23.83;;;6.90;78.50;;;;;;5056137;28;20490;-77
2024/01/11 10:30:16;;;;;;;33.20;23.57;;;7.50;75.40;;;;;;5057275;28;20454;-76
2024/01/11 10:32:46;;;;;;;32.37;23.07;;;8.00;69.40;;;;;;5051245;28;20483;-77
2024/01/11 10:35:17;;;;;;;32.60;23.07;;;8.80;70.00;;;;;;5055204;28;20886;-78
2024/01/11 10:37:50;;;;;;;29.40;22.67;;;9.50;68.30;;;;;;5052035;28;20481;-76
2024/01/11 10:40:20;;;;;;;32.73;23.13;;;9.90;64.00;;;;;;5057882;28;20815;-78
2024/01/11 10:42:52;;;;;;;33.37;24.97;;;10.30;63.60;;;;;;5056663;28;20558;-78
2024/01/11 10:45:21;;;;;;;31.53;22.67;;;11.00;65.80;;;;;;5056689;28;20518;-76
2024/01/11 10:47:56;;;;;;;33.40;23.30;;;11.40;67.50;;;;;;5054745;28;20510;-77
2024/01/11 10:50:32;;;;;;;30.73;23.53;;;11.50;64.20;;;;;;5054545;28;20968;-78
2024/01/11 10:53:13;;;;;;;32.83;24.70;;;12.00;69.70;;;;;;5053015;28;20479;-77
2024/01/11 10:55:43;;;;;;;35.33;23.10;;;12.00;65.80;;;;;;5056984;28;21011;-78
2024/01/11 10:58:13;;;;;;;32.10;23.83;;;11.70;57.50;;;;;;5055495;28;20819;-80
2024/01/11 11:00:41;;;;;;;34.83;24.10;;;10.60;45.10;;;;;;5050982;28;20478;-79
2024/01/11 11:03:12;;;;;;;32.53;22.53;;;10.40;44.20;;;;;;5055795;28;20498;-79
2024/01/11 11:05:43;;;;;;;32.70;23.40;;;9.60;38.40;;;;;;5055186;28;20455;-78
2024/01/11 11:08:14;;;;;;;35.93;24.13;;;8.50;26.70;;;;;;5055114;28;20812;-76
2024/01/11 11:10:43;;;;;;;37.87;24.83;;;8.00;24.00;;;;;;5049275;28;20813;-75
2024/01/11 11:13:15;;;;;;;35.03;23.40;;;7.60;22.20;;;;;;5048352;28;20591;-79
2024/01/11 11:15:46;;;;;;;32.13;22.40;;;7.30;20.90;;;;;;5054103;28;20455;-79
2024/01/11 11:18:15;;;;;;;31.80;23.90;;;7.40;23.00;;;;;;5053627;28;20891;-77
2024/01/11 11:20:44;;;;;;;32.20;23.17;;;7.30;21.70;;;;;;5053234;28;20450;-77
2024/01/11 11:23:17;;;;;;;30.63;21.53;;;7.20;22.30;;;;;;5053583;28;20481;-78
2024/01/11 11:25:47;;;;;;;29.90;21.27;;;7.30;23.00;;;;;;5052608;28;20471;-77
2024/01/11 11:28:17;;;;;;;32.23;21.33;;;7.60;25.50;;;;;;5051371;28;20531;-77
2024/01/11 11:30:48;;;;;;;33.67;23.30;;;8.40;31.80;;;;;;5047875;28;20547;-75
2024/01/11 11:33:18;;;;;;;30.27;22.17;;;9.10;38.10;;;;;;5054423;28;20486;-78
2024/01/11 11:35:48;;;;;;;30.77;23.43;;;8.30;29.20;;;;;;5039215;28;20452;-76
2024/01/11 11:38:23;;;;;;;29.33;19.77;;;7.60;23.70;;;;;;5045883;28;20447;-76
2024/01/11 11:40:53;;;;;;;31.20;20.50;;;7.20;31.90;;;;;;5052483;28;20460;-75
2024/01/11 11:43:22;;;;;;;31.40;23.43;;;6.90;18.90;;;;;;5053081;28;20487;-78
2024/01/11 11:45:52;;;;;;;32.67;22.37;;;6.60;16.70;;;;;;5050197;28;20446;-76
2024/01/11 11:48:50;;;;;;;31.40;22.10;;;6.30;13.90;;;;;;5053455;28;20455;-76
2024/01/11 11:51:21;;;;;;;29.60;20.30;;;6.20;14.70;;;;;;5041442;28;20467;-76
2024/01/11 11:53:54;;;;;;;34.90;21.07;;;6.30;17.90;;;;;;5042511;28;20485;-76
2024/01/11 11:56:24;;;;;;;27.40;22.48;;;6.30;18.80;;;;;;5054634;28;20526;-77
2024/01/11 11:58:54;;;;;;;28.63;21.60;;;6.30;18.30;;;;;;5052529;28;20206;-75
2024/01/11 12:01:23;;;;;;;31.47;20.97;;;6.00;15.20;;;;;;5034568;28;20517;-77
2024/01/11 12:03:53;;;;;;;28.27;19.60;;;6.00;15.40;;;;;;5039965;28;20497;-77
2024/01/11 12:06:24;;;;;;;28.63;20.70;;;6.00;16.70;;;;;;5039662;28;20447;-77
2024/01/11 12:08:56;;;;;;;27.10;19.90;;;6.20;18.60;;;;;;5036844;28;20463;-78
2024/01/11 12:11:26;;;;;;;28.03;21.53;;;6.20;17.90;;;;;;5054072;28;20798;-77
2024/01/11 12:13:57;;;;;;;23.57;18.33;;;6.30;18.70;;;;;;5049522;28;20479;-77
2024/01/11 12:16:27;;;;;;;29.97;18.90;;;6.20;17.80;;;;;;5037568;28;20535;-77
2024/01/11 12:18:55;;;;;;;26.50;21.60;;;6.20;17.50;;;;;;5037773;28;21547;-78
2024/01/11 12:21:26;;;;;;;27.97;19.50;;;6.20;17.70;;;;;;5039260;28;20466;-77
2024/01/11 12:23:56;;;;;;;30.00;17.53;;;6.20;28.70;;;;;;5052073;28;20514;-77
2024/01/11 12:26:24;;;;;;;31.30;20.30;;;6.10;15.80;;;;;;5043674;28;20456;-75
2024/01/11 12:28:53;;;;;;;29.70;20.10;;;6.10;17.30;;;;;;5041793;28;20993;-76
2024/01/11 12:31:22;;;;;;;31.87;18.97;;;6.30;19.00;;;;;;5045424;28;20468;-77
2024/01/11 12:33:51;;;;;;;29.17;20.20;;;6.40;20.40;;;;;;5053810;28;20586;-78
2024/01/11 12:36:20;;;;;;;27.93;20.00;;;6.40;19.60;;;;;;5051371;28;21067;-78
2024/01/11 12:38:49;;;;;;;28.37;19.87;;;6.40;19.60;;;;;;5054535;28;20452;-77